Emporium, Pennsylvania
Current Conditions -  °F | °C
As of 10:53 AM on Thursday 27 Nov 2014 (Local Time) from KBFD Reporting Station
Overcast Overcast  
Wind Chill: 28°   Ceiling: 1300
Heat Index: 28°   Visibility: 9mi
Dew Point: 22°   Wind: 3mph
Humidity: 78%   Direction: 350°N
Pressure: 29.99"   Gusts: NA
Location:  41.51°N, 78.24°W
Report Text: KBFD 271553Z AUTO 35003KT 9SM BKN013 OVC033 M02/M06 A2999 RMK AO2 SNE52 SLP176 P0000 T10221056
Loading
Personal Weather Stations






























Interactive Weather Map New forecast layout! Learn more

10-Day Weather Forecast

Advertisements
Track Severe Weather on mobile